sensor_id;sensor_type;location;lat;lon;timestamp;P1;durP1;ratioP1;P2;durP2;ratioP2
24555;SDS011;12725;49.440;10.954;2023-07-29T00:03:48;1.60;;;0.88;;
24555;SDS011;12725;49.440;10.954;2023-07-29T00:07:49;1.23;;;1.00;;
24555;SDS011;12725;49.440;10.954;2023-07-29T00:11:49;0.97;;;0.77;;
24555;SDS011;12725;49.440;10.954;2023-07-29T00:15:49;1.15;;;0.90;;
24555;SDS011;12725;49.440;10.954;2023-07-29T00:19:50;0.90;;;0.80;;
24555;SDS011;12725;49.440;10.954;2023-07-29T00:23:50;0.73;;;0.73;;
24555;SDS011;12725;49.440;10.954;2023-07-29T00:27:50;1.70;;;0.80;;
24555;SDS011;12725;49.440;10.954;2023-07-29T00:31:51;0.82;;;0.73;;
24555;SDS011;12725;49.440;10.954;2023-07-29T00:35:51;1.47;;;1.20;;
24555;SDS011;12725;49.440;10.954;2023-07-29T00:39:52;1.52;;;1.13;;
24555;SDS011;12725;49.440;10.954;2023-07-29T00:43:52;1.45;;;1.00;;
24555;SDS011;12725;49.440;10.954;2023-07-29T00:47:52;1.65;;;1.42;;
24555;SDS011;12725;49.440;10.954;2023-07-29T00:51:53;1.42;;;0.73;;
24555;SDS011;12725;49.440;10.954;2023-07-29T00:55:54;1.70;;;0.93;;
24555;SDS011;12725;49.440;10.954;2023-07-29T00:59:54;2.50;;;1.23;;
24555;SDS011;12725;49.440;10.954;2023-07-29T01:03:55;1.15;;;0.77;;
24555;SDS011;12725;49.440;10.954;2023-07-29T01:07:58;1.63;;;1.27;;
24555;SDS011;12725;49.440;10.954;2023-07-29T01:16:13;8.48;;;1.08;;
24555;SDS011;12725;49.440;10.954;2023-07-29T01:20:18;2.05;;;1.75;;
24555;SDS011;12725;49.440;10.954;2023-07-29T01:24:20;0.98;;;0.88;;
24555;SDS011;12725;49.440;10.954;2023-07-29T01:28:20;1.93;;;1.40;;
24555;SDS011;12725;49.440;10.954;2023-07-29T01:36:45;3.33;;;1.42;;
24555;SDS011;12725;49.440;10.954;2023-07-29T01:40:47;1.35;;;1.00;;
24555;SDS011;12725;49.440;10.954;2023-07-29T01:44:48;1.42;;;1.13;;
24555;SDS011;12725;49.440;10.954;2023-07-29T01:48:49;1.37;;;0.90;;
24555;SDS011;12725;49.440;10.954;2023-07-29T01:52:49;1.80;;;1.17;;
24555;SDS011;12725;49.440;10.954;2023-07-29T01:56:49;1.98;;;1.15;;
24555;SDS011;12725;49.440;10.954;2023-07-29T02:00:51;2.15;;;1.40;;
24555;SDS011;12725;49.440;10.954;2023-07-29T02:04:51;1.10;;;1.00;;
24555;SDS011;12725;49.440;10.954;2023-07-29T02:08:52;1.63;;;1.00;;
24555;SDS011;12725;49.440;10.954;2023-07-29T02:12:55;1.88;;;1.10;;
24555;SDS011;12725;49.440;10.954;2023-07-29T02:16:55;1.30;;;0.98;;
24555;SDS011;12725;49.440;10.954;2023-07-29T02:20:55;4.77;;;1.77;;
24555;SDS011;12725;49.440;10.954;2023-07-29T02:24:56;2.25;;;1.35;;
24555;SDS011;12725;49.440;10.954;2023-07-29T02:28:56;1.38;;;1.23;;
24555;SDS011;12725;49.440;10.954;2023-07-29T02:32:57;2.00;;;1.60;;
24555;SDS011;12725;49.440;10.954;2023-07-29T02:36:57;1.97;;;1.17;;
24555;SDS011;12725;49.440;10.954;2023-07-29T02:40:57;1.27;;;1.10;;
24555;SDS011;12725;49.440;10.954;2023-07-29T02:44:58;0.82;;;0.82;;
24555;SDS011;12725;49.440;10.954;2023-07-29T02:48:58;1.75;;;1.35;;
24555;SDS011;12725;49.440;10.954;2023-07-29T02:52:59;1.80;;;1.60;;
24555;SDS011;12725;49.440;10.954;2023-07-29T02:57:00;1.77;;;1.25;;
24555;SDS011;12725;49.440;10.954;2023-07-29T03:01:01;3.00;;;1.33;;
24555;SDS011;12725;49.440;10.954;2023-07-29T03:05:02;1.55;;;1.33;;
24555;SDS011;12725;49.440;10.954;2023-07-29T03:09:03;1.45;;;1.30;;
24555;SDS011;12725;49.440;10.954;2023-07-29T03:13:04;1.83;;;1.30;;
24555;SDS011;12725;49.440;10.954;2023-07-29T03:17:05;1.98;;;1.63;;
24555;SDS011;12725;49.440;10.954;2023-07-29T03:21:06;2.40;;;1.45;;
24555;SDS011;12725;49.440;10.954;2023-07-29T03:25:06;2.28;;;1.58;;
24555;SDS011;12725;49.440;10.954;2023-07-29T03:29:07;1.73;;;1.38;;
24555;SDS011;12725;49.440;10.954;2023-07-29T03:33:07;2.37;;;1.47;;
24555;SDS011;12725;49.440;10.954;2023-07-29T03:37:07;1.37;;;1.20;;
24555;SDS011;12725;49.440;10.954;2023-07-29T03:41:08;2.00;;;1.73;;
24555;SDS011;12725;49.440;10.954;2023-07-29T03:45:09;1.83;;;1.38;;
24555;SDS011;12725;49.440;10.954;2023-07-29T03:49:10;2.35;;;1.65;;
24555;SDS011;12725;49.440;10.954;2023-07-29T03:53:10;2.65;;;1.92;;
24555;SDS011;12725;49.440;10.954;2023-07-29T03:57:11;3.38;;;1.75;;
24555;SDS011;12725;49.440;10.954;2023-07-29T04:01:11;1.87;;;1.63;;
24555;SDS011;12725;49.440;10.954;2023-07-29T04:05:11;7.73;;;1.33;;
24555;SDS011;12725;49.440;10.954;2023-07-29T04:09:12;3.80;;;1.83;;
24555;SDS011;12725;49.440;10.954;2023-07-29T04:13:12;2.60;;;1.95;;
24555;SDS011;12725;49.440;10.954;2023-07-29T04:17:12;2.87;;;1.83;;
24555;SDS011;12725;49.440;10.954;2023-07-29T04:21:13;2.53;;;1.57;;
24555;SDS011;12725;49.440;10.954;2023-07-29T04:25:13;9.70;;;1.70;;
24555;SDS011;12725;49.440;10.954;2023-07-29T04:29:13;1.48;;;1.30;;
24555;SDS011;12725;49.440;10.954;2023-07-29T04:33:14;2.42;;;2.10;;
24555;SDS011;12725;49.440;10.954;2023-07-29T04:37:14;2.30;;;2.10;;
24555;SDS011;12725;49.440;10.954;2023-07-29T04:41:15;2.17;;;1.42;;
24555;SDS011;12725;49.440;10.954;2023-07-29T04:45:15;3.40;;;1.57;;
24555;SDS011;12725;49.440;10.954;2023-07-29T04:49:16;1.98;;;1.75;;
24555;SDS011;12725;49.440;10.954;2023-07-29T04:53:16;7.60;;;1.73;;
24555;SDS011;12725;49.440;10.954;2023-07-29T04:57:16;2.77;;;1.93;;
24555;SDS011;12725;49.440;10.954;2023-07-29T05:01:17;2.87;;;1.73;;
24555;SDS011;12725;49.440;10.954;2023-07-29T05:05:17;1.60;;;1.43;;
24555;SDS011;12725;49.440;10.954;2023-07-29T05:09:18;2.67;;;1.85;;
24555;SDS011;12725;49.440;10.954;2023-07-29T05:13:20;1.95;;;1.42;;
24555;SDS011;12725;49.440;10.954;2023-07-29T05:17:21;2.40;;;1.98;;
24555;SDS011;12725;49.440;10.954;2023-07-29T05:21:21;1.90;;;1.45;;
24555;SDS011;12725;49.440;10.954;2023-07-29T05:25:22;4.10;;;1.73;;
24555;SDS011;12725;49.440;10.954;2023-07-29T05:29:22;7.35;;;1.98;;
24555;SDS011;12725;49.440;10.954;2023-07-29T05:33:22;1.63;;;1.40;;
24555;SDS011;12725;49.440;10.954;2023-07-29T05:37:23;2.27;;;1.47;;
24555;SDS011;12725;49.440;10.954;2023-07-29T05:41:23;2.43;;;1.57;;
24555;SDS011;12725;49.440;10.954;2023-07-29T05:45:23;2.17;;;1.43;;
24555;SDS011;12725;49.440;10.954;2023-07-29T05:49:24;7.13;;;1.60;;
24555;SDS011;12725;49.440;10.954;2023-07-29T05:53:24;2.87;;;1.23;;
24555;SDS011;12725;49.440;10.954;2023-07-29T05:57:24;6.83;;;2.27;;
24555;SDS011;12725;49.440;10.954;2023-07-29T06:01:25;1.37;;;1.20;;
24555;SDS011;12725;49.440;10.954;2023-07-29T06:05:26;4.05;;;1.30;;
24555;SDS011;12725;49.440;10.954;2023-07-29T06:09:27;1.27;;;1.02;;
24555;SDS011;12725;49.440;10.954;2023-07-29T06:13:27;1.87;;;1.50;;
24555;SDS011;12725;49.440;10.954;2023-07-29T06:17:27;2.90;;;1.50;;
24555;SDS011;12725;49.440;10.954;2023-07-29T06:21:28;2.03;;;1.10;;
24555;SDS011;12725;49.440;10.954;2023-07-29T06:25:28;1.77;;;1.10;;
24555;SDS011;12725;49.440;10.954;2023-07-29T06:29:28;3.13;;;1.17;;
24555;SDS011;12725;49.440;10.954;2023-07-29T06:33:29;2.45;;;1.30;;
24555;SDS011;12725;49.440;10.954;2023-07-29T06:37:29;2.40;;;1.67;;
24555;SDS011;12725;49.440;10.954;2023-07-29T06:41:29;2.13;;;1.33;;
24555;SDS011;12725;49.440;10.954;2023-07-29T06:45:30;2.90;;;1.45;;
24555;SDS011;12725;49.440;10.954;2023-07-29T06:49:31;1.20;;;1.10;;
24555;SDS011;12725;49.440;10.954;2023-07-29T06:53:31;1.60;;;0.90;;
24555;SDS011;12725;49.440;10.954;2023-07-29T06:57:31;0.52;;;0.52;;
24555;SDS011;12725;49.440;10.954;2023-07-29T07:01:33;0.65;;;0.60;;
24555;SDS011;12725;49.440;10.954;2023-07-29T07:05:34;0.65;;;0.65;;
24555;SDS011;12725;49.440;10.954;2023-07-29T07:09:34;4.03;;;1.03;;
24555;SDS011;12725;49.440;10.954;2023-07-29T07:13:34;0.60;;;0.60;;
24555;SDS011;12725;49.440;10.954;2023-07-29T07:17:35;3.63;;;1.17;;
24555;SDS011;12725;49.440;10.954;2023-07-29T07:21:35;1.10;;;0.75;;
24555;SDS011;12725;49.440;10.954;2023-07-29T07:25:36;0.75;;;0.68;;
24555;SDS011;12725;49.440;10.954;2023-07-29T07:29:36;1.80;;;1.03;;
24555;SDS011;12725;49.440;10.954;2023-07-29T07:33:36;0.70;;;0.70;;
24555;SDS011;12725;49.440;10.954;2023-07-29T07:37:37;0.67;;;0.67;;
24555;SDS011;12725;49.440;10.954;2023-07-29T07:41:38;1.83;;;0.93;;
24555;SDS011;12725;49.440;10.954;2023-07-29T07:45:38;1.15;;;0.90;;
24555;SDS011;12725;49.440;10.954;2023-07-29T07:49:39;1.20;;;1.03;;
24555;SDS011;12725;49.440;10.954;2023-07-29T07:53:39;2.27;;;1.50;;
24555;SDS011;12725;49.440;10.954;2023-07-29T07:57:40;1.35;;;0.75;;
24555;SDS011;12725;49.440;10.954;2023-07-29T08:01:40;1.35;;;0.90;;
24555;SDS011;12725;49.440;10.954;2023-07-29T08:05:41;2.55;;;1.27;;
24555;SDS011;12725;49.440;10.954;2023-07-29T08:09:41;2.93;;;1.10;;
24555;SDS011;12725;49.440;10.954;2023-07-29T08:13:41;1.20;;;1.03;;
24555;SDS011;12725;49.440;10.954;2023-07-29T08:17:42;1.07;;;0.90;;
24555;SDS011;12725;49.440;10.954;2023-07-29T08:21:42;2.08;;;1.15;;
24555;SDS011;12725;49.440;10.954;2023-07-29T08:25:43;3.00;;;1.25;;
24555;SDS011;12725;49.440;10.954;2023-07-29T08:29:43;4.40;;;1.33;;
24555;SDS011;12725;49.440;10.954;2023-07-29T08:33:43;0.90;;;0.80;;
24555;SDS011;12725;49.440;10.954;2023-07-29T08:37:44;1.57;;;1.30;;
24555;SDS011;12725;49.440;10.954;2023-07-29T08:41:46;4.90;;;1.03;;
24555;SDS011;12725;49.440;10.954;2023-07-29T08:45:51;1.05;;;0.93;;
24555;SDS011;12725;49.440;10.954;2023-07-29T08:49:52;3.58;;;2.25;;
24555;SDS011;12725;49.440;10.954;2023-07-29T08:53:52;1.15;;;1.00;;
24555;SDS011;12725;49.440;10.954;2023-07-29T08:57:53;0.93;;;0.82;;
24555;SDS011;12725;49.440;10.954;2023-07-29T09:01:54;1.00;;;0.90;;
24555;SDS011;12725;49.440;10.954;2023-07-29T09:05:57;1.25;;;0.77;;
24555;SDS011;12725;49.440;10.954;2023-07-29T09:09:58;1.75;;;1.45;;
24555;SDS011;12725;49.440;10.954;2023-07-29T09:13:59;1.17;;;0.87;;
24555;SDS011;12725;49.440;10.954;2023-07-29T09:17:59;1.23;;;0.93;;
24555;SDS011;12725;49.440;10.954;2023-07-29T09:22:17;0.68;;;0.68;;
24555;SDS011;12725;49.440;10.954;2023-07-29T09:26:22;1.55;;;1.02;;
24555;SDS011;12725;49.440;10.954;2023-07-29T09:30:23;2.72;;;1.13;;
24555;SDS011;12725;49.440;10.954;2023-07-29T09:34:24;1.23;;;0.70;;
24555;SDS011;12725;49.440;10.954;2023-07-29T09:38:27;0.70;;;0.70;;
24555;SDS011;12725;49.440;10.954;2023-07-29T09:42:28;0.60;;;0.60;;
24555;SDS011;12725;49.440;10.954;2023-07-29T09:46:35;6.03;;;1.20;;
24555;SDS011;12725;49.440;10.954;2023-07-29T09:50:36;1.35;;;1.10;;
24555;SDS011;12725;49.440;10.954;2023-07-29T09:54:37;1.15;;;1.05;;
24555;SDS011;12725;49.440;10.954;2023-07-29T09:58:37;2.80;;;1.27;;
24555;SDS011;12725;49.440;10.954;2023-07-29T10:02:42;1.08;;;0.98;;
24555;SDS011;12725;49.440;10.954;2023-07-29T10:06:43;1.10;;;1.00;;
24555;SDS011;12725;49.440;10.954;2023-07-29T10:10:43;1.30;;;1.17;;
24555;SDS011;12725;49.440;10.954;2023-07-29T10:14:44;1.83;;;1.23;;
24555;SDS011;12725;49.440;10.954;2023-07-29T10:18:46;1.48;;;1.38;;
24555;SDS011;12725;49.440;10.954;2023-07-29T10:22:46;2.40;;;1.52;;
24555;SDS011;12725;49.440;10.954;2023-07-29T10:26:47;4.13;;;1.67;;
24555;SDS011;12725;49.440;10.954;2023-07-29T10:30:49;1.63;;;1.20;;
24555;SDS011;12725;49.440;10.954;2023-07-29T10:34:50;1.75;;;1.40;;
24555;SDS011;12725;49.440;10.954;2023-07-29T10:38:50;1.65;;;1.52;;
24555;SDS011;12725;49.440;10.954;2023-07-29T10:43:01;1.88;;;0.82;;
24555;SDS011;12725;49.440;10.954;2023-07-29T10:47:10;0.90;;;0.80;;
24555;SDS011;12725;49.440;10.954;2023-07-29T10:51:21;2.60;;;1.27;;
24555;SDS011;12725;49.440;10.954;2023-07-29T10:59:33;1.65;;;1.33;;
24555;SDS011;12725;49.440;10.954;2023-07-29T11:03:36;1.90;;;1.25;;
24555;SDS011;12725;49.440;10.954;2023-07-29T11:07:43;2.20;;;1.03;;
24555;SDS011;12725;49.440;10.954;2023-07-29T11:11:45;1.23;;;0.85;;
24555;SDS011;12725;49.440;10.954;2023-07-29T11:15:45;1.20;;;0.80;;
24555;SDS011;12725;49.440;10.954;2023-07-29T11:19:46;1.30;;;1.02;;
24555;SDS011;12725;49.440;10.954;2023-07-29T11:23:46;1.35;;;0.90;;
24555;SDS011;12725;49.440;10.954;2023-07-29T11:27:47;0.80;;;0.80;;
24555;SDS011;12725;49.440;10.954;2023-07-29T11:31:47;0.95;;;0.88;;
24555;SDS011;12725;49.440;10.954;2023-07-29T11:35:47;1.85;;;1.17;;
24555;SDS011;12725;49.440;10.954;2023-07-29T11:39:49;1.63;;;1.00;;
24555;SDS011;12725;49.440;10.954;2023-07-29T11:43:49;0.63;;;0.63;;
24555;SDS011;12725;49.440;10.954;2023-07-29T11:47:50;0.50;;;0.50;;
24555;SDS011;12725;49.440;10.954;2023-07-29T11:51:50;0.87;;;0.73;;
24555;SDS011;12725;49.440;10.954;2023-07-29T11:55:51;0.75;;;0.65;;
24555;SDS011;12725;49.440;10.954;2023-07-29T11:59:53;1.42;;;0.73;;
24555;SDS011;12725;49.440;10.954;2023-07-29T12:03:53;1.55;;;0.82;;
24555;SDS011;12725;49.440;10.954;2023-07-29T12:07:54;1.65;;;1.05;;
24555;SDS011;12725;49.440;10.954;2023-07-29T12:11:55;1.00;;;0.88;;
24555;SDS011;12725;49.440;10.954;2023-07-29T12:16:02;0.75;;;0.75;;
24555;SDS011;12725;49.440;10.954;2023-07-29T12:20:03;2.00;;;1.05;;
24555;SDS011;12725;49.440;10.954;2023-07-29T12:24:04;1.08;;;0.77;;
24555;SDS011;12725;49.440;10.954;2023-07-29T12:28:05;1.27;;;0.70;;
24555;SDS011;12725;49.440;10.954;2023-07-29T12:32:06;7.97;;;0.93;;
24555;SDS011;12725;49.440;10.954;2023-07-29T12:36:07;1.05;;;0.80;;
24555;SDS011;12725;49.440;10.954;2023-07-29T12:40:08;0.93;;;0.80;;
24555;SDS011;12725;49.440;10.954;2023-07-29T12:44:29;1.00;;;0.75;;
24555;SDS011;12725;49.440;10.954;2023-07-29T12:48:31;1.30;;;1.00;;
24555;SDS011;12725;49.440;10.954;2023-07-29T12:52:31;0.73;;;0.73;;
24555;SDS011;12725;49.440;10.954;2023-07-29T12:56:31;1.50;;;0.93;;
24555;SDS011;12725;49.440;10.954;2023-07-29T13:00:32;0.50;;;0.50;;
24555;SDS011;12725;49.440;10.954;2023-07-29T13:04:33;1.23;;;1.02;;
24555;SDS011;12725;49.440;10.954;2023-07-29T13:08:33;4.60;;;1.10;;
24555;SDS011;12725;49.440;10.954;2023-07-29T13:12:33;1.00;;;0.80;;
24555;SDS011;12725;49.440;10.954;2023-07-29T13:16:34;1.05;;;0.80;;
24555;SDS011;12725;49.440;10.954;2023-07-29T13:20:34;1.50;;;1.07;;
24555;SDS011;12725;49.440;10.954;2023-07-29T13:24:34;2.10;;;0.77;;
24555;SDS011;12725;49.440;10.954;2023-07-29T13:28:35;1.10;;;1.00;;
24555;SDS011;12725;49.440;10.954;2023-07-29T13:32:35;0.97;;;0.70;;
24555;SDS011;12725;49.440;10.954;2023-07-29T13:36:36;0.57;;;0.57;;
24555;SDS011;12725;49.440;10.954;2023-07-29T13:40:36;1.73;;;0.60;;
24555;SDS011;12725;49.440;10.954;2023-07-29T13:44:37;0.70;;;0.70;;
24555;SDS011;12725;49.440;10.954;2023-07-29T13:48:37;2.20;;;1.37;;
24555;SDS011;12725;49.440;10.954;2023-07-29T13:52:37;0.67;;;0.60;;
24555;SDS011;12725;49.440;10.954;2023-07-29T13:56:38;0.65;;;0.57;;
24555;SDS011;12725;49.440;10.954;2023-07-29T14:00:38;1.17;;;0.83;;
24555;SDS011;12725;49.440;10.954;2023-07-29T14:04:39;0.50;;;0.50;;
24555;SDS011;12725;49.440;10.954;2023-07-29T14:08:39;0.90;;;0.77;;
24555;SDS011;12725;49.440;10.954;2023-07-29T14:12:41;0.38;;;0.38;;
24555;SDS011;12725;49.440;10.954;2023-07-29T14:16:42;0.57;;;0.57;;
24555;SDS011;12725;49.440;10.954;2023-07-29T14:20:42;0.50;;;0.50;;
24555;SDS011;12725;49.440;10.954;2023-07-29T14:24:42;0.73;;;0.60;;
24555;SDS011;12725;49.440;10.954;2023-07-29T14:28:43;0.40;;;0.40;;
24555;SDS011;12725;49.440;10.954;2023-07-29T14:32:43;1.20;;;0.73;;
24555;SDS011;12725;49.440;10.954;2023-07-29T14:36:43;1.00;;;0.57;;
24555;SDS011;12725;49.440;10.954;2023-07-29T14:40:44;4.43;;;0.57;;
24555;SDS011;12725;49.440;10.954;2023-07-29T14:44:44;0.83;;;0.50;;
24555;SDS011;12725;49.440;10.954;2023-07-29T14:48:44;0.50;;;0.50;;
24555;SDS011;12725;49.440;10.954;2023-07-29T14:52:47;0.40;;;0.40;;
24555;SDS011;12725;49.440;10.954;2023-07-29T14:56:47;0.90;;;0.80;;
24555;SDS011;12725;49.440;10.954;2023-07-29T15:00:47;0.77;;;0.60;;
24555;SDS011;12725;49.440;10.954;2023-07-29T15:04:48;0.55;;;0.52;;
24555;SDS011;12725;49.440;10.954;2023-07-29T15:08:48;0.93;;;0.75;;
24555;SDS011;12725;49.440;10.954;2023-07-29T15:12:49;0.57;;;0.57;;
24555;SDS011;12725;49.440;10.954;2023-07-29T15:16:49;5.13;;;0.90;;
24555;SDS011;12725;49.440;10.954;2023-07-29T15:20:49;0.80;;;0.80;;
24555;SDS011;12725;49.440;10.954;2023-07-29T15:24:50;0.73;;;0.73;;
24555;SDS011;12725;49.440;10.954;2023-07-29T15:28:50;0.87;;;0.50;;
24555;SDS011;12725;49.440;10.954;2023-07-29T15:32:51;1.10;;;0.70;;
24555;SDS011;12725;49.440;10.954;2023-07-29T15:36:51;0.70;;;0.70;;
24555;SDS011;12725;49.440;10.954;2023-07-29T15:40:52;0.82;;;0.75;;
24555;SDS011;12725;49.440;10.954;2023-07-29T15:44:52;0.80;;;0.50;;
24555;SDS011;12725;49.440;10.954;2023-07-29T15:48:52;0.60;;;0.60;;
24555;SDS011;12725;49.440;10.954;2023-07-29T15:52:55;0.85;;;0.65;;
24555;SDS011;12725;49.440;10.954;2023-07-29T15:56:56;0.63;;;0.63;;
24555;SDS011;12725;49.440;10.954;2023-07-29T16:00:57;0.60;;;0.60;;
24555;SDS011;12725;49.440;10.954;2023-07-29T16:04:57;0.70;;;0.70;;
24555;SDS011;12725;49.440;10.954;2023-07-29T16:08:57;0.50;;;0.50;;
24555;SDS011;12725;49.440;10.954;2023-07-29T16:12:59;0.77;;;0.70;;
24555;SDS011;12725;49.440;10.954;2023-07-29T16:17:02;0.68;;;0.68;;
24555;SDS011;12725;49.440;10.954;2023-07-29T16:21:03;0.77;;;0.68;;
24555;SDS011;12725;49.440;10.954;2023-07-29T16:25:04;0.80;;;0.80;;
24555;SDS011;12725;49.440;10.954;2023-07-29T16:29:04;1.52;;;1.17;;
24555;SDS011;12725;49.440;10.954;2023-07-29T16:33:05;1.15;;;0.90;;
24555;SDS011;12725;49.440;10.954;2023-07-29T16:37:06;0.60;;;0.60;;
24555;SDS011;12725;49.440;10.954;2023-07-29T16:41:06;1.17;;;0.90;;
24555;SDS011;12725;49.440;10.954;2023-07-29T16:45:07;0.60;;;0.60;;
24555;SDS011;12725;49.440;10.954;2023-07-29T16:49:08;0.80;;;0.63;;
24555;SDS011;12725;49.440;10.954;2023-07-29T16:53:08;0.70;;;0.70;;
24555;SDS011;12725;49.440;10.954;2023-07-29T16:57:08;0.93;;;0.77;;
24555;SDS011;12725;49.440;10.954;2023-07-29T17:01:09;1.13;;;0.90;;
24555;SDS011;12725;49.440;10.954;2023-07-29T17:05:09;0.80;;;0.80;;
24555;SDS011;12725;49.440;10.954;2023-07-29T17:09:09;1.13;;;0.82;;
24555;SDS011;12725;49.440;10.954;2023-07-29T17:13:11;0.90;;;0.88;;
24555;SDS011;12725;49.440;10.954;2023-07-29T17:17:11;1.03;;;0.80;;
24555;SDS011;12725;49.440;10.954;2023-07-29T17:21:12;1.05;;;0.95;;
24555;SDS011;12725;49.440;10.954;2023-07-29T17:25:13;0.73;;;0.73;;
24555;SDS011;12725;49.440;10.954;2023-07-29T17:29:13;0.73;;;0.63;;
24555;SDS011;12725;49.440;10.954;2023-07-29T17:33:14;0.60;;;0.60;;
24555;SDS011;12725;49.440;10.954;2023-07-29T17:37:14;2.80;;;0.83;;
24555;SDS011;12725;49.440;10.954;2023-07-29T17:41:14;1.50;;;1.00;;
24555;SDS011;12725;49.440;10.954;2023-07-29T17:45:15;1.10;;;0.80;;
24555;SDS011;12725;49.440;10.954;2023-07-29T17:49:15;0.85;;;0.70;;
24555;SDS011;12725;49.440;10.954;2023-07-29T17:53:16;0.50;;;0.50;;
24555;SDS011;12725;49.440;10.954;2023-07-29T17:57:16;1.83;;;0.83;;
24555;SDS011;12725;49.440;10.954;2023-07-29T18:01:16;1.43;;;1.00;;
24555;SDS011;12725;49.440;10.954;2023-07-29T18:05:17;0.63;;;0.57;;
24555;SDS011;12725;49.440;10.954;2023-07-29T18:09:17;1.48;;;0.85;;
24555;SDS011;12725;49.440;10.954;2023-07-29T18:13:18;0.60;;;0.60;;
24555;SDS011;12725;49.440;10.954;2023-07-29T18:17:21;0.60;;;0.60;;
24555;SDS011;12725;49.440;10.954;2023-07-29T18:21:21;0.70;;;0.60;;
24555;SDS011;12725;49.440;10.954;2023-07-29T18:25:22;0.67;;;0.67;;
24555;SDS011;12725;49.440;10.954;2023-07-29T18:29:23;0.77;;;0.77;;
24555;SDS011;12725;49.440;10.954;2023-07-29T18:33:23;0.73;;;0.73;;
24555;SDS011;12725;49.440;10.954;2023-07-29T18:37:23;0.80;;;0.60;;
24555;SDS011;12725;49.440;10.954;2023-07-29T18:41:24;1.00;;;0.82;;
24555;SDS011;12725;49.440;10.954;2023-07-29T18:45:26;0.80;;;0.60;;
24555;SDS011;12725;49.440;10.954;2023-07-29T18:49:29;0.93;;;0.82;;
24555;SDS011;12725;49.440;10.954;2023-07-29T18:53:29;2.15;;;0.90;;
24555;SDS011;12725;49.440;10.954;2023-07-29T18:57:35;1.05;;;0.95;;
24555;SDS011;12725;49.440;10.954;2023-07-29T19:01:45;3.63;;;1.33;;
24555;SDS011;12725;49.440;10.954;2023-07-29T19:05:45;1.67;;;1.00;;
24555;SDS011;12725;49.440;10.954;2023-07-29T19:09:45;0.98;;;0.90;;
24555;SDS011;12725;49.440;10.954;2023-07-29T19:13:46;0.60;;;0.60;;
24555;SDS011;12725;49.440;10.954;2023-07-29T19:17:47;1.60;;;0.90;;
24555;SDS011;12725;49.440;10.954;2023-07-29T19:21:47;0.85;;;0.85;;
24555;SDS011;12725;49.440;10.954;2023-07-29T19:25:48;1.00;;;0.60;;
24555;SDS011;12725;49.440;10.954;2023-07-29T19:29:48;1.10;;;1.00;;
24555;SDS011;12725;49.440;10.954;2023-07-29T19:33:49;3.80;;;1.00;;
24555;SDS011;12725;49.440;10.954;2023-07-29T19:37:52;1.35;;;0.90;;
24555;SDS011;12725;49.440;10.954;2023-07-29T19:41:52;1.17;;;0.77;;
24555;SDS011;12725;49.440;10.954;2023-07-29T19:45:53;2.15;;;1.25;;
24555;SDS011;12725;49.440;10.954;2023-07-29T19:49:53;0.87;;;0.60;;
24555;SDS011;12725;49.440;10.954;2023-07-29T19:53:53;1.17;;;0.83;;
24555;SDS011;12725;49.440;10.954;2023-07-29T19:57:54;1.40;;;1.08;;
24555;SDS011;12725;49.440;10.954;2023-07-29T20:01:54;1.00;;;0.77;;
24555;SDS011;12725;49.440;10.954;2023-07-29T20:05:55;4.55;;;0.98;;
24555;SDS011;12725;49.440;10.954;2023-07-29T20:09:55;0.63;;;0.63;;
24555;SDS011;12725;49.440;10.954;2023-07-29T20:13:55;0.97;;;0.67;;
24555;SDS011;12725;49.440;10.954;2023-07-29T20:17:56;0.90;;;0.90;;
24555;SDS011;12725;49.440;10.954;2023-07-29T20:21:56;1.03;;;0.73;;
24555;SDS011;12725;49.440;10.954;2023-07-29T20:25:56;1.38;;;1.02;;
24555;SDS011;12725;49.440;10.954;2023-07-29T20:29:57;3.70;;;1.10;;
24555;SDS011;12725;49.440;10.954;2023-07-29T20:33:57;2.73;;;1.20;;
24555;SDS011;12725;49.440;10.954;2023-07-29T20:37:57;2.20;;;1.40;;
24555;SDS011;12725;49.440;10.954;2023-07-29T20:41:58;2.43;;;1.10;;
24555;SDS011;12725;49.440;10.954;2023-07-29T20:45:58;1.50;;;0.90;;
24555;SDS011;12725;49.440;10.954;2023-07-29T20:49:58;1.20;;;0.77;;
24555;SDS011;12725;49.440;10.954;2023-07-29T20:53:59;0.60;;;0.60;;
24555;SDS011;12725;49.440;10.954;2023-07-29T20:58:00;1.45;;;0.82;;
24555;SDS011;12725;49.440;10.954;2023-07-29T21:02:01;0.88;;;0.82;;
24555;SDS011;12725;49.440;10.954;2023-07-29T21:06:03;1.23;;;0.88;;
24555;SDS011;12725;49.440;10.954;2023-07-29T21:10:04;0.80;;;0.80;;
24555;SDS011;12725;49.440;10.954;2023-07-29T21:14:04;1.13;;;0.88;;
24555;SDS011;12725;49.440;10.954;2023-07-29T21:18:05;0.90;;;0.70;;
24555;SDS011;12725;49.440;10.954;2023-07-29T21:22:05;0.77;;;0.70;;
24555;SDS011;12725;49.440;10.954;2023-07-29T21:26:06;1.60;;;1.20;;
24555;SDS011;12725;49.440;10.954;2023-07-29T21:30:07;0.90;;;0.80;;
24555;SDS011;12725;49.440;10.954;2023-07-29T21:34:07;1.80;;;0.98;;
24555;SDS011;12725;49.440;10.954;2023-07-29T21:38:08;1.97;;;0.90;;
24555;SDS011;12725;49.440;10.954;2023-07-29T21:42:08;0.70;;;0.70;;
24555;SDS011;12725;49.440;10.954;2023-07-29T21:46:08;1.00;;;0.80;;
24555;SDS011;12725;49.440;10.954;2023-07-29T21:50:09;1.45;;;0.93;;
24555;SDS011;12725;49.440;10.954;2023-07-29T21:54:09;1.38;;;0.80;;
24555;SDS011;12725;49.440;10.954;2023-07-29T21:58:10;1.67;;;1.00;;
24555;SDS011;12725;49.440;10.954;2023-07-29T22:06:20;0.70;;;0.70;;
24555;SDS011;12725;49.440;10.954;2023-07-29T22:10:21;0.98;;;0.77;;
24555;SDS011;12725;49.440;10.954;2023-07-29T22:14:21;0.80;;;0.80;;
24555;SDS011;12725;49.440;10.954;2023-07-29T22:18:21;2.05;;;1.10;;
24555;SDS011;12725;49.440;10.954;2023-07-29T22:22:22;0.50;;;0.50;;
24555;SDS011;12725;49.440;10.954;2023-07-29T22:26:22;0.60;;;0.60;;
24555;SDS011;12725;49.440;10.954;2023-07-29T22:30:23;0.60;;;0.60;;
24555;SDS011;12725;49.440;10.954;2023-07-29T22:34:23;0.83;;;0.70;;
24555;SDS011;12725;49.440;10.954;2023-07-29T22:38:24;0.40;;;0.40;;
24555;SDS011;12725;49.440;10.954;2023-07-29T22:42:24;0.75;;;0.70;;
24555;SDS011;12725;49.440;10.954;2023-07-29T22:46:24;0.80;;;0.80;;
24555;SDS011;12725;49.440;10.954;2023-07-29T22:50:25;0.43;;;0.43;;
24555;SDS011;12725;49.440;10.954;2023-07-29T22:54:25;0.80;;;0.70;;
24555;SDS011;12725;49.440;10.954;2023-07-29T22:58:25;1.67;;;1.00;;
24555;SDS011;12725;49.440;10.954;2023-07-29T23:02:26;0.70;;;0.68;;
24555;SDS011;12725;49.440;10.954;2023-07-29T23:06:26;3.45;;;0.90;;
24555;SDS011;12725;49.440;10.954;2023-07-29T23:10:26;1.67;;;1.03;;
24555;SDS011;12725;49.440;10.954;2023-07-29T23:14:28;2.13;;;1.35;;
24555;SDS011;12725;49.440;10.954;2023-07-29T23:18:29;0.88;;;0.70;;
24555;SDS011;12725;49.440;10.954;2023-07-29T23:22:29;3.03;;;0.80;;
24555;SDS011;12725;49.440;10.954;2023-07-29T23:26:29;2.27;;;1.30;;
24555;SDS011;12725;49.440;10.954;2023-07-29T23:30:30;1.73;;;0.85;;
24555;SDS011;12725;49.440;10.954;2023-07-29T23:34:30;0.60;;;0.60;;
24555;SDS011;12725;49.440;10.954;2023-07-29T23:38:31;1.50;;;1.00;;
24555;SDS011;12725;49.440;10.954;2023-07-29T23:42:31;1.23;;;1.10;;
24555;SDS011;12725;49.440;10.954;2023-07-29T23:46:32;2.22;;;1.25;;
24555;SDS011;12725;49.440;10.954;2023-07-29T23:50:32;1.10;;;1.00;;
24555;SDS011;12725;49.440;10.954;2023-07-29T23:54:32;1.33;;;0.83;;
24555;SDS011;12725;49.440;10.954;2023-07-29T23:58:33;1.87;;;1.30;;
